sensor_id;sensor_type;location;lat;lon;timestamp;pressure;altitude;pressure_sealevel;temperature;humidity
30347;BME280;19047;44.782;20.468;2022-09-24T00:02:28;101207.41;;;10.34;76.69
30347;BME280;19047;44.782;20.468;2022-09-24T00:06:00;101209.78;;;10.32;76.95
30347;BME280;19047;44.782;20.468;2022-09-24T00:09:23;101203.00;;;10.30;76.97
30347;BME280;19047;44.782;20.468;2022-09-24T00:12:55;101207.41;;;10.27;76.96
30347;BME280;19047;44.782;20.468;2022-09-24T00:16:13;101202.22;;;10.26;76.96
30347;BME280;19047;44.782;20.468;2022-09-24T00:19:43;101197.41;;;10.22;77.13
30347;BME280;19047;44.782;20.468;2022-09-24T00:23:00;101199.00;;;10.20;77.10
30347;BME280;19047;44.782;20.468;2022-09-24T00:26:30;101199.75;;;10.17;77.13
30347;BME280;19047;44.782;20.468;2022-09-24T00:30:06;101190.19;;;10.14;77.27
30347;BME280;19047;44.782;20.468;2022-09-24T00:33:37;101197.38;;;10.12;77.34
30347;BME280;19047;44.782;20.468;2022-09-24T00:36:54;101186.16;;;10.08;77.20
30347;BME280;19047;44.782;20.468;2022-09-24T00:40:29;101184.19;;;10.05;77.30
30347;BME280;19047;44.782;20.468;2022-09-24T00:43:46;101183.78;;;10.03;77.29
30347;BME280;19047;44.782;20.468;2022-09-24T00:50:38;101174.97;;;9.98;77.48
30347;BME280;19047;44.782;20.468;2022-09-24T00:54:10;101175.78;;;9.95;77.33
30347;BME280;19047;44.782;20.468;2022-09-24T00:57:28;101171.78;;;9.92;77.36
30347;BME280;19047;44.782;20.468;2022-09-24T01:01:03;101178.97;;;9.89;77.40
30347;BME280;19047;44.782;20.468;2022-09-24T01:04:20;101181.75;;;9.86;77.62
30347;BME280;19047;44.782;20.468;2022-09-24T01:07:50;101182.13;;;9.84;77.50
30347;BME280;19047;44.782;20.468;2022-09-24T01:21:40;101179.31;;;9.74;77.79
30347;BME280;19047;44.782;20.468;2022-09-24T01:25:15;101187.72;;;9.74;77.92
30347;BME280;19047;44.782;20.468;2022-09-24T01:32:13;101190.09;;;9.68;78.34
30347;BME280;19047;44.782;20.468;2022-09-24T01:35:51;101194.91;;;9.68;78.31
30347;BME280;19047;44.782;20.468;2022-09-24T01:39:10;101194.88;;;9.64;78.27
30347;BME280;19047;44.782;20.468;2022-09-24T01:42:41;101189.66;;;9.52;78.70
30347;BME280;19047;44.782;20.468;2022-09-24T01:46:02;101199.69;;;9.60;78.65
30347;BME280;19047;44.782;20.468;2022-09-24T01:49:34;101193.69;;;9.58;78.76
30347;BME280;19047;44.782;20.468;2022-09-24T01:52:53;101196.84;;;9.57;78.73
30347;BME280;19047;44.782;20.468;2022-09-24T02:03:35;101203.63;;;9.52;78.98
30347;BME280;19047;44.782;20.468;2022-09-24T02:11:21;101205.63;;;9.48;78.98
30347;BME280;19047;44.782;20.468;2022-09-24T02:22:31;101198.00;;;9.41;79.46
30347;BME280;19047;44.782;20.468;2022-09-24T02:26:30;101197.63;;;9.39;79.54
30347;BME280;19047;44.782;20.468;2022-09-24T02:29:49;101189.22;;;9.36;79.41
30347;BME280;19047;44.782;20.468;2022-09-24T02:37:27;101195.97;;;9.31;79.60
30347;BME280;19047;44.782;20.468;2022-09-24T02:41:13;101199.19;;;9.30;79.50
30347;BME280;19047;44.782;20.468;2022-09-24T02:44:35;101199.94;;;9.27;79.49
30347;BME280;19047;44.782;20.468;2022-09-24T02:48:10;101197.56;;;9.25;79.76
30347;BME280;19047;44.782;20.468;2022-09-24T02:51:27;101190.75;;;9.23;79.82
30347;BME280;19047;44.782;20.468;2022-09-24T02:54:58;101195.53;;;9.22;79.81
30347;BME280;19047;44.782;20.468;2022-09-24T02:58:15;101194.31;;;9.20;79.98
30347;BME280;19047;44.782;20.468;2022-09-24T03:01:45;101193.13;;;9.17;79.87
30347;BME280;19047;44.782;20.468;2022-09-24T03:05:02;101186.34;;;9.14;80.01
30347;BME280;19047;44.782;20.468;2022-09-24T03:08:32;101194.28;;;9.12;80.04
30347;BME280;19047;44.782;20.468;2022-09-24T03:11:50;101192.28;;;9.09;80.08
30347;BME280;19047;44.782;20.468;2022-09-24T03:15:23;101202.66;;;9.05;80.23
30347;BME280;19047;44.782;20.468;2022-09-24T03:18:41;101185.50;;;9.07;80.18
30347;BME280;19047;44.782;20.468;2022-09-24T03:22:13;101191.47;;;9.05;80.29
30347;BME280;19047;44.782;20.468;2022-09-24T03:25:31;101181.88;;;9.03;80.26
30347;BME280;19047;44.782;20.468;2022-09-24T03:29:01;101190.66;;;9.01;80.21
30347;BME280;19047;44.782;20.468;2022-09-24T03:32:19;101182.66;;;9.00;80.34
30347;BME280;19047;44.782;20.468;2022-09-24T03:35:53;101190.63;;;8.98;80.58
30347;BME280;19047;44.782;20.468;2022-09-24T03:39:10;101187.44;;;8.96;80.63
30347;BME280;19047;44.782;20.468;2022-09-24T03:42:41;101159.34;;;8.67;80.45
30347;BME280;19047;44.782;20.468;2022-09-24T03:45:58;101183.00;;;8.91;80.65
30347;BME280;19047;44.782;20.468;2022-09-24T03:49:31;101183.00;;;8.91;80.60
30347;BME280;19047;44.782;20.468;2022-09-24T03:52:48;101189.00;;;8.86;80.46
30347;BME280;19047;44.782;20.468;2022-09-24T03:56:18;101185.78;;;8.88;80.75
30347;BME280;19047;44.782;20.468;2022-09-24T03:59:35;101176.59;;;8.87;81.12
30347;BME280;19047;44.782;20.468;2022-09-24T04:03:05;101179.00;;;8.85;80.61
30347;BME280;19047;44.782;20.468;2022-09-24T04:06:22;101181.00;;;8.85;80.97
30347;BME280;19047;44.782;20.468;2022-09-24T04:09:53;101175.81;;;8.83;80.98
30347;BME280;19047;44.782;20.468;2022-09-24T04:13:11;101186.56;;;8.81;80.77
30347;BME280;19047;44.782;20.468;2022-09-24T04:16:40;101178.56;;;8.79;80.93
30347;BME280;19047;44.782;20.468;2022-09-24T04:20:00;101172.19;;;8.79;80.92
30347;BME280;19047;44.782;20.468;2022-09-24T04:23:31;101175.34;;;8.77;81.10
30347;BME280;19047;44.782;20.468;2022-09-24T04:26:48;101172.97;;;8.76;81.39
30347;BME280;19047;44.782;20.468;2022-09-24T04:30:19;101169.38;;;8.75;81.43
30347;BME280;19047;44.782;20.468;2022-09-24T04:33:37;101168.59;;;8.75;81.58
30347;BME280;19047;44.782;20.468;2022-09-24T04:37:11;101180.13;;;8.73;81.00
30347;BME280;19047;44.782;20.468;2022-09-24T04:40:29;101180.53;;;8.72;81.14
30347;BME280;19047;44.782;20.468;2022-09-24T04:43:59;101180.53;;;8.72;81.69
30347;BME280;19047;44.782;20.468;2022-09-24T04:47:16;101192.44;;;8.69;81.33
30347;BME280;19047;44.782;20.468;2022-09-24T04:50:48;101178.50;;;8.69;81.73
30347;BME280;19047;44.782;20.468;2022-09-24T04:54:05;101182.91;;;8.70;81.81
30347;BME280;19047;44.782;20.468;2022-09-24T04:57:35;101181.72;;;8.71;81.65
30347;BME280;19047;44.782;20.468;2022-09-24T05:00:52;101184.50;;;8.71;81.43
30347;BME280;19047;44.782;20.468;2022-09-24T05:04:24;101191.28;;;8.73;82.08
30347;BME280;19047;44.782;20.468;2022-09-24T05:07:42;101189.31;;;8.74;81.42
30347;BME280;19047;44.782;20.468;2022-09-24T05:11:13;101194.09;;;8.77;81.77
30347;BME280;19047;44.782;20.468;2022-09-24T05:14:30;101188.94;;;8.79;81.83
30347;BME280;19047;44.782;20.468;2022-09-24T05:18:01;101195.72;;;8.82;82.07
30347;BME280;19047;44.782;20.468;2022-09-24T05:21:18;101196.16;;;8.87;82.02
30347;BME280;19047;44.782;20.468;2022-09-24T05:24:49;101196.59;;;8.93;82.22
30347;BME280;19047;44.782;20.468;2022-09-24T05:28:06;101195.44;;;8.97;82.27
30347;BME280;19047;44.782;20.468;2022-09-24T05:31:37;101191.47;;;9.05;81.95
30347;BME280;19047;44.782;20.468;2022-09-24T05:34:54;101205.84;;;9.11;82.08
30347;BME280;19047;44.782;20.468;2022-09-24T05:38:26;101189.16;;;9.18;82.62
30347;BME280;19047;44.782;20.468;2022-09-24T05:41:45;101186.78;;;9.27;82.67
30347;BME280;19047;44.782;20.468;2022-09-24T05:45:16;101184.81;;;9.35;82.66
30347;BME280;19047;44.782;20.468;2022-09-24T05:48:33;101184.44;;;9.43;82.77
30347;BME280;19047;44.782;20.468;2022-09-24T05:52:06;101186.47;;;9.53;82.79
30347;BME280;19047;44.782;20.468;2022-09-24T05:55:24;101152.91;;;9.36;82.84
30347;BME280;19047;44.782;20.468;2022-09-24T05:58:56;101202.47;;;9.67;83.11
30347;BME280;19047;44.782;20.468;2022-09-24T06:02:13;101218.47;;;9.84;83.28
30347;BME280;19047;44.782;20.468;2022-09-24T06:05:48;101222.91;;;9.96;82.99
30347;BME280;19047;44.782;20.468;2022-09-24T06:09:05;101217.75;;;10.05;83.05
30347;BME280;19047;44.782;20.468;2022-09-24T06:12:38;101225.72;;;10.17;82.96
30347;BME280;19047;44.782;20.468;2022-09-24T06:16:00;101217.41;;;10.24;83.30
30347;BME280;19047;44.782;20.468;2022-09-24T06:19:31;101216.19;;;10.36;83.31
30347;BME280;19047;44.782;20.468;2022-09-24T06:22:48;101216.19;;;10.50;83.34
30347;BME280;19047;44.782;20.468;2022-09-24T06:26:20;101224.56;;;10.65;83.53
30347;BME280;19047;44.782;20.468;2022-09-24T06:29:38;101216.56;;;10.74;83.24
30347;BME280;19047;44.782;20.468;2022-09-24T06:33:08;101222.13;;;10.88;83.38
30347;BME280;19047;44.782;20.468;2022-09-24T06:36:26;101206.50;;;10.97;83.49
30347;BME280;19047;44.782;20.468;2022-09-24T06:39:56;101209.69;;;11.10;83.47
30347;BME280;19047;44.782;20.468;2022-09-24T06:43:14;101189.28;;;11.06;83.43
30347;BME280;19047;44.782;20.468;2022-09-24T06:46:44;101217.56;;;11.37;83.23
30347;BME280;19047;44.782;20.468;2022-09-24T06:50:00;101222.72;;;11.49;83.31
30347;BME280;19047;44.782;20.468;2022-09-24T06:53:31;101219.47;;;11.61;83.31
30347;BME280;19047;44.782;20.468;2022-09-24T06:56:48;101215.03;;;11.70;83.37
30347;BME280;19047;44.782;20.468;2022-09-24T07:00:21;101211.38;;;11.81;83.35
30347;BME280;19047;44.782;20.468;2022-09-24T07:03:38;101231.34;;;11.93;83.26
30347;BME280;19047;44.782;20.468;2022-09-24T07:07:15;101234.09;;;12.04;83.31
30347;BME280;19047;44.782;20.468;2022-09-24T07:11:07;101235.19;;;12.17;83.00
30347;BME280;19047;44.782;20.468;2022-09-24T07:14:40;101240.75;;;12.28;83.28
30347;BME280;19047;44.782;20.468;2022-09-24T07:17:57;101240.25;;;12.40;82.97
30347;BME280;19047;44.782;20.468;2022-09-24T07:21:28;101252.19;;;12.51;83.24
30347;BME280;19047;44.782;20.468;2022-09-24T07:24:45;101251.31;;;12.61;83.17
30347;BME280;19047;44.782;20.468;2022-09-24T07:28:17;101242.81;;;12.68;83.16
30347;BME280;19047;44.782;20.468;2022-09-24T07:31:34;101261.94;;;12.80;83.15
30347;BME280;19047;44.782;20.468;2022-09-24T07:35:06;101254.59;;;12.94;82.70
30347;BME280;19047;44.782;20.468;2022-09-24T07:38:24;101253.69;;;13.07;83.05
30347;BME280;19047;44.782;20.468;2022-09-24T07:41:54;101248.72;;;13.22;82.87
30347;BME280;19047;44.782;20.468;2022-09-24T07:45:13;101246.97;;;13.35;82.83
30347;BME280;19047;44.782;20.468;2022-09-24T07:48:43;101233.25;;;13.41;82.67
30347;BME280;19047;44.782;20.468;2022-09-24T07:52:04;101237.81;;;13.62;82.56
30347;BME280;19047;44.782;20.468;2022-09-24T07:55:34;101240.78;;;13.78;82.52
30347;BME280;19047;44.782;20.468;2022-09-24T07:58:55;101244.75;;;13.84;82.81
30347;BME280;19047;44.782;20.468;2022-09-24T08:02:25;101259.31;;;14.06;82.75
30347;BME280;19047;44.782;20.468;2022-09-24T08:05:43;101195.09;;;13.97;82.64
30347;BME280;19047;44.782;20.468;2022-09-24T08:09:17;101218.50;;;14.44;82.85
30347;BME280;19047;44.782;20.468;2022-09-24T08:12:35;101171.81;;;14.47;84.05
30347;BME280;19047;44.782;20.468;2022-09-24T08:16:08;101226.78;;;15.21;84.38
30347;BME280;19047;44.782;20.468;2022-09-24T08:19:25;101215.88;;;15.63;84.79
30347;BME280;19047;44.782;20.468;2022-09-24T08:23:05;101212.69;;;16.13;84.76
30347;BME280;19047;44.782;20.468;2022-09-24T08:26:22;101218.13;;;16.72;87.15
30347;BME280;19047;44.782;20.468;2022-09-24T08:29:53;101224.75;;;17.40;87.87
30347;BME280;19047;44.782;20.468;2022-09-24T08:33:11;101219.09;;;17.94;88.40
30347;BME280;19047;44.782;20.468;2022-09-24T08:36:45;101227.00;;;18.63;88.06
30347;BME280;19047;44.782;20.468;2022-09-24T08:40:01;101239.53;;;19.21;88.64
30347;BME280;19047;44.782;20.468;2022-09-24T08:44:03;101227.19;;;19.81;87.35
30347;BME280;19047;44.782;20.468;2022-09-24T08:47:45;101231.88;;;20.36;85.54
30347;BME280;19047;44.782;20.468;2022-09-24T08:51:20;101238.34;;;20.86;83.82
30347;BME280;19047;44.782;20.468;2022-09-24T08:54:38;101231.75;;;21.26;83.61
30347;BME280;19047;44.782;20.468;2022-09-24T09:01:44;101219.59;;;22.04;81.88
30347;BME280;19047;44.782;20.468;2022-09-24T09:08:58;101222.22;;;22.97;83.07
30347;BME280;19047;44.782;20.468;2022-09-24T09:12:37;101210.03;;;23.35;79.50
30347;BME280;19047;44.782;20.468;2022-09-24T09:16:16;101177.06;;;23.63;76.65
30347;BME280;19047;44.782;20.468;2022-09-24T09:19:55;101161.41;;;24.23;74.16
30347;BME280;19047;44.782;20.468;2022-09-24T09:23:29;101165.16;;;24.90;74.75
30347;BME280;19047;44.782;20.468;2022-09-24T09:27:10;101148.75;;;25.37;74.53
30347;BME280;19047;44.782;20.468;2022-09-24T09:30:37;101189.88;;;26.17;73.19
30347;BME280;19047;44.782;20.468;2022-09-24T09:45:29;101186.31;;;28.24;65.06
30347;BME280;19047;44.782;20.468;2022-09-24T09:49:05;101149.38;;;28.45;62.18
30347;BME280;19047;44.782;20.468;2022-09-24T09:52:26;101154.38;;;29.02;60.76
30347;BME280;19047;44.782;20.468;2022-09-24T09:56:02;101180.91;;;29.36;58.80
30347;BME280;19047;44.782;20.468;2022-09-24T09:59:21;101166.03;;;29.68;59.21
30347;BME280;19047;44.782;20.468;2022-09-24T10:02:56;101164.63;;;30.10;57.50
30347;BME280;19047;44.782;20.468;2022-09-24T10:06:25;101143.88;;;30.11;54.93
30347;BME280;19047;44.782;20.468;2022-09-24T10:09:59;101180.53;;;30.71;53.65
30347;BME280;19047;44.782;20.468;2022-09-24T10:13:18;101166.00;;;30.95;53.78
30347;BME280;19047;44.782;20.468;2022-09-24T10:16:52;101156.81;;;31.15;50.12
30347;BME280;19047;44.782;20.468;2022-09-24T10:20:23;101168.22;;;31.45;50.53
30347;BME280;19047;44.782;20.468;2022-09-24T10:23:59;101153.41;;;31.68;50.21
30347;BME280;19047;44.782;20.468;2022-09-24T10:27:29;101165.94;;;31.89;49.67
30347;BME280;19047;44.782;20.468;2022-09-24T10:31:05;101166.72;;;32.03;49.10
30347;BME280;19047;44.782;20.468;2022-09-24T10:34:27;101148.50;;;32.08;49.07
30347;BME280;19047;44.782;20.468;2022-09-24T10:37:59;101133.47;;;32.09;46.70
30347;BME280;19047;44.782;20.468;2022-09-24T10:41:26;101169.03;;;32.49;46.17
30347;BME280;19047;44.782;20.468;2022-09-24T10:44:58;101162.69;;;32.64;46.69
30347;BME280;19047;44.782;20.468;2022-09-24T10:48:25;101119.09;;;32.56;45.58
30347;BME280;19047;44.782;20.468;2022-09-24T10:56:25;101160.41;;;33.10;45.95
30347;BME280;19047;44.782;20.468;2022-09-24T11:00:07;101161.47;;;33.33;44.45
30347;BME280;19047;44.782;20.468;2022-09-24T11:08:00;101149.81;;;33.67;42.07
30347;BME280;19047;44.782;20.468;2022-09-24T11:11:39;101147.47;;;33.65;42.05
30347;BME280;19047;44.782;20.468;2022-09-24T11:30:15;101101.78;;;34.28;40.50
30347;BME280;19047;44.782;20.468;2022-09-24T11:33:49;101098.88;;;34.28;41.47
30347;BME280;19047;44.782;20.468;2022-09-24T11:44:55;101106.78;;;34.64;39.28
30347;BME280;19047;44.782;20.468;2022-09-24T11:48:27;101064.88;;;34.44;39.41
30347;BME280;19047;44.782;20.468;2022-09-24T11:52:14;101095.56;;;34.60;38.29
30347;BME280;19047;44.782;20.468;2022-09-24T12:02:51;101098.44;;;34.24;40.08
30347;BME280;19047;44.782;20.468;2022-09-24T12:06:46;101087.41;;;33.94;38.09
30347;BME280;19047;44.782;20.468;2022-09-24T12:17:39;101035.72;;;32.42;39.40
30347;BME280;19047;44.782;20.468;2022-09-24T12:21:16;101092.53;;;32.45;39.08
30347;BME280;19047;44.782;20.468;2022-09-24T12:24:44;101092.03;;;32.14;40.34
30347;BME280;19047;44.782;20.468;2022-09-24T12:28:20;101036.16;;;31.35;39.86
30347;BME280;19047;44.782;20.468;2022-09-24T12:32:19;101094.28;;;31.31;40.08
30347;BME280;19047;44.782;20.468;2022-09-24T12:36:18;101084.41;;;30.89;40.65
30347;BME280;19047;44.782;20.468;2022-09-24T12:39:49;101073.38;;;30.50;41.24
30347;BME280;19047;44.782;20.468;2022-09-24T12:43:34;101073.28;;;30.12;41.33
30347;BME280;19047;44.782;20.468;2022-09-24T12:46:55;101077.56;;;29.76;42.91
30347;BME280;19047;44.782;20.468;2022-09-24T12:50:32;101001.44;;;29.00;42.04
30347;BME280;19047;44.782;20.468;2022-09-24T12:53:57;101007.66;;;28.69;43.31
30347;BME280;19047;44.782;20.468;2022-09-24T12:57:33;101052.94;;;28.68;42.68
30347;BME280;19047;44.782;20.468;2022-09-24T13:01:13;101001.41;;;28.02;43.18
30347;BME280;19047;44.782;20.468;2022-09-24T13:04:50;101012.47;;;27.86;43.58
30347;BME280;19047;44.782;20.468;2022-09-24T13:11:47;101024.03;;;27.19;44.75
30347;BME280;19047;44.782;20.468;2022-09-24T13:15:06;101028.19;;;27.07;45.80
30347;BME280;19047;44.782;20.468;2022-09-24T13:18:37;101028.66;;;26.78;46.53
30347;BME280;19047;44.782;20.468;2022-09-24T13:21:57;101025.72;;;26.50;46.79
30347;BME280;19047;44.782;20.468;2022-09-24T13:25:31;101035.78;;;26.23;47.30
30347;BME280;19047;44.782;20.468;2022-09-24T13:32:20;101013.88;;;25.72;47.24
30347;BME280;19047;44.782;20.468;2022-09-24T13:35:42;101023.06;;;25.50;48.66
30347;BME280;19047;44.782;20.468;2022-09-24T13:42:32;101025.00;;;25.01;48.64
30347;BME280;19047;44.782;20.468;2022-09-24T13:46:06;101016.47;;;24.81;49.04
30347;BME280;19047;44.782;20.468;2022-09-24T13:49:27;101020.94;;;24.62;48.86
30347;BME280;19047;44.782;20.468;2022-09-24T13:53:00;101019.69;;;24.43;49.25
30347;BME280;19047;44.782;20.468;2022-09-24T13:56:22;101011.69;;;24.26;49.39
30347;BME280;19047;44.782;20.468;2022-09-24T14:03:29;100998.63;;;23.99;51.09
30347;BME280;19047;44.782;20.468;2022-09-24T14:07:00;100873.44;;;23.08;51.08
30347;BME280;19047;44.782;20.468;2022-09-24T14:10:21;100913.34;;;23.22;51.60
30347;BME280;19047;44.782;20.468;2022-09-24T14:13:52;100866.69;;;22.90;52.12
30347;BME280;19047;44.782;20.468;2022-09-24T14:17:13;100990.44;;;23.72;52.04
30347;BME280;19047;44.782;20.468;2022-09-24T14:20:54;100987.81;;;23.69;51.87
30347;BME280;19047;44.782;20.468;2022-09-24T14:24:31;100991.16;;;23.67;52.84
30347;BME280;19047;44.782;20.468;2022-09-24T14:27:49;100977.38;;;23.65;52.21
30347;BME280;19047;44.782;20.468;2022-09-24T14:31:19;100979.63;;;23.61;52.29
30347;BME280;19047;44.782;20.468;2022-09-24T14:34:37;100979.56;;;23.56;52.48
30347;BME280;19047;44.782;20.468;2022-09-24T14:38:13;100982.78;;;23.49;52.80
30347;BME280;19047;44.782;20.468;2022-09-24T14:41:32;100980.56;;;23.38;52.80
30347;BME280;19047;44.782;20.468;2022-09-24T14:45:06;100982.75;;;23.28;52.96
30347;BME280;19047;44.782;20.468;2022-09-24T14:48:30;100981.00;;;23.16;53.41
30347;BME280;19047;44.782;20.468;2022-09-24T14:52:03;100985.72;;;23.05;53.49
30347;BME280;19047;44.782;20.468;2022-09-24T14:55:33;100992.34;;;22.96;53.95
30347;BME280;19047;44.782;20.468;2022-09-24T14:59:12;100879.06;;;21.99;54.03
30347;BME280;19047;44.782;20.468;2022-09-24T15:02:32;101032.63;;;22.74;54.14
30347;BME280;19047;44.782;20.468;2022-09-24T15:06:23;100981.06;;;22.63;54.49
30347;BME280;19047;44.782;20.468;2022-09-24T15:09:47;100865.44;;;21.79;54.91
30347;BME280;19047;44.782;20.468;2022-09-24T15:13:21;100981.09;;;22.48;55.71
30347;BME280;19047;44.782;20.468;2022-09-24T15:16:45;100870.28;;;21.64;55.29
30347;BME280;19047;44.782;20.468;2022-09-24T15:20:18;100986.56;;;22.37;55.46
30347;BME280;19047;44.782;20.468;2022-09-24T15:23:37;100990.56;;;22.31;55.53
30347;BME280;19047;44.782;20.468;2022-09-24T15:27:16;100993.81;;;22.24;56.02
30347;BME280;19047;44.782;20.468;2022-09-24T15:30:37;100986.59;;;22.13;55.88
30347;BME280;19047;44.782;20.468;2022-09-24T15:34:12;100973.69;;;22.03;56.45
30347;BME280;19047;44.782;20.468;2022-09-24T15:37:39;100906.22;;;21.38;56.32
30347;BME280;19047;44.782;20.468;2022-09-24T15:41:16;100971.13;;;21.81;56.95
30347;BME280;19047;44.782;20.468;2022-09-24T15:44:33;100961.88;;;21.72;57.10
30347;BME280;19047;44.782;20.468;2022-09-24T15:48:15;100964.94;;;21.59;57.30
30347;BME280;19047;44.782;20.468;2022-09-24T15:51:32;100958.53;;;21.49;57.30
30347;BME280;19047;44.782;20.468;2022-09-24T15:55:05;100958.25;;;21.38;57.44
30347;BME280;19047;44.782;20.468;2022-09-24T15:58:31;100957.53;;;21.29;57.56
30347;BME280;19047;44.782;20.468;2022-09-24T16:02:02;100958.06;;;21.18;57.71
30347;BME280;19047;44.782;20.468;2022-09-24T16:05:22;100812.03;;;20.19;58.03
30347;BME280;19047;44.782;20.468;2022-09-24T16:08:52;100960.91;;;21.00;58.47
30347;BME280;19047;44.782;20.468;2022-09-24T16:12:16;100965.53;;;20.88;58.60
30347;BME280;19047;44.782;20.468;2022-09-24T16:15:50;100972.84;;;20.80;58.95
30347;BME280;19047;44.782;20.468;2022-09-24T16:19:07;100977.75;;;20.70;59.44
30347;BME280;19047;44.782;20.468;2022-09-24T16:22:38;100967.34;;;20.58;59.96
30347;BME280;19047;44.782;20.468;2022-09-24T16:25:55;100971.47;;;20.48;60.31
30347;BME280;19047;44.782;20.468;2022-09-24T16:29:26;100960.59;;;20.37;60.78
30347;BME280;19047;44.782;20.468;2022-09-24T16:32:43;100959.94;;;20.24;61.13
30347;BME280;19047;44.782;20.468;2022-09-24T16:36:13;100950.81;;;20.11;61.50
30347;BME280;19047;44.782;20.468;2022-09-24T16:39:30;100957.44;;;19.99;61.83
30347;BME280;19047;44.782;20.468;2022-09-24T16:43:02;100949.53;;;19.85;62.31
30347;BME280;19047;44.782;20.468;2022-09-24T16:46:19;100948.88;;;19.72;62.79
30347;BME280;19047;44.782;20.468;2022-09-24T16:49:51;100952.78;;;19.56;62.84
30347;BME280;19047;44.782;20.468;2022-09-24T16:53:08;100956.97;;;19.42;63.10
30347;BME280;19047;44.782;20.468;2022-09-24T16:56:39;100871.34;;;18.54;63.16
30347;BME280;19047;44.782;20.468;2022-09-24T16:59:56;100961.44;;;19.12;63.40
30347;BME280;19047;44.782;20.468;2022-09-24T17:03:28;100958.38;;;18.98;63.57
30347;BME280;19047;44.782;20.468;2022-09-24T17:06:45;100964.59;;;18.83;63.75
30347;BME280;19047;44.782;20.468;2022-09-24T17:10:16;100964.38;;;18.69;64.03
30347;BME280;19047;44.782;20.468;2022-09-24T17:13:34;100976.66;;;18.53;64.14
30347;BME280;19047;44.782;20.468;2022-09-24T17:17:04;100893.59;;;17.91;64.23
30347;BME280;19047;44.782;20.468;2022-09-24T17:20:24;100974.09;;;18.24;64.67
30347;BME280;19047;44.782;20.468;2022-09-24T17:23:54;100982.66;;;18.11;65.02
30347;BME280;19047;44.782;20.468;2022-09-24T17:27:10;100979.06;;;17.98;65.19
30347;BME280;19047;44.782;20.468;2022-09-24T17:30:42;100989.19;;;17.86;65.37
30347;BME280;19047;44.782;20.468;2022-09-24T17:34:02;101005.44;;;17.73;65.63
30347;BME280;19047;44.782;20.468;2022-09-24T17:37:37;100998.94;;;17.60;65.77
30347;BME280;19047;44.782;20.468;2022-09-24T17:40:55;100989.69;;;17.47;66.07
30347;BME280;19047;44.782;20.468;2022-09-24T17:44:26;100996.13;;;17.35;66.20
30347;BME280;19047;44.782;20.468;2022-09-24T17:47:46;100990.03;;;17.24;66.46
30347;BME280;19047;44.782;20.468;2022-09-24T17:54:38;100866.19;;;16.14;66.64
30347;BME280;19047;44.782;20.468;2022-09-24T18:01:48;101004.34;;;16.78;67.14
30347;BME280;19047;44.782;20.468;2022-09-24T18:05:19;100996.63;;;16.66;67.50
30347;BME280;19047;44.782;20.468;2022-09-24T18:08:36;100998.50;;;16.57;67.54
30347;BME280;19047;44.782;20.468;2022-09-24T18:12:06;100993.94;;;16.47;67.68
30347;BME280;19047;44.782;20.468;2022-09-24T18:15:22;100992.22;;;16.36;67.81
30347;BME280;19047;44.782;20.468;2022-09-24T18:18:53;100992.06;;;16.27;68.00
30347;BME280;19047;44.782;20.468;2022-09-24T18:22:10;100984.25;;;16.19;68.11
30347;BME280;19047;44.782;20.468;2022-09-24T18:25:40;100989.75;;;16.10;68.26
30347;BME280;19047;44.782;20.468;2022-09-24T18:28:58;100990.34;;;16.01;68.55
30347;BME280;19047;44.782;20.468;2022-09-24T18:32:31;100978.91;;;15.92;68.70
30347;BME280;19047;44.782;20.468;2022-09-24T18:35:48;100987.13;;;15.86;68.93
30347;BME280;19047;44.782;20.468;2022-09-24T18:39:20;100981.66;;;15.79;68.96
30347;BME280;19047;44.782;20.468;2022-09-24T18:42:37;100987.06;;;15.74;69.15
30347;BME280;19047;44.782;20.468;2022-09-24T18:46:10;100986.03;;;15.67;69.32
30347;BME280;19047;44.782;20.468;2022-09-24T18:49:27;100985.75;;;15.62;69.46
30347;BME280;19047;44.782;20.468;2022-09-24T18:52:58;100991.13;;;15.56;69.67
30347;BME280;19047;44.782;20.468;2022-09-24T18:56:16;100986.78;;;15.52;69.59
30347;BME280;19047;44.782;20.468;2022-09-24T18:59:47;100988.09;;;15.47;69.77
30347;BME280;19047;44.782;20.468;2022-09-24T19:03:04;100991.00;;;15.44;69.84
30347;BME280;19047;44.782;20.468;2022-09-24T19:06:35;100977.41;;;15.39;69.92
30347;BME280;19047;44.782;20.468;2022-09-24T19:09:53;100974.72;;;15.35;70.10
30347;BME280;19047;44.782;20.468;2022-09-24T19:13:26;100963.94;;;15.30;70.35
30347;BME280;19047;44.782;20.468;2022-09-24T19:16:44;100976.09;;;15.27;70.42
30347;BME280;19047;44.782;20.468;2022-09-24T19:20:19;100935.78;;;14.94;70.20
30347;BME280;19047;44.782;20.468;2022-09-24T19:23:43;100967.00;;;15.19;70.45
30347;BME280;19047;44.782;20.468;2022-09-24T19:27:14;100967.09;;;15.16;70.57
30347;BME280;19047;44.782;20.468;2022-09-24T19:30:42;100966.41;;;15.12;70.81
30347;BME280;19047;44.782;20.468;2022-09-24T19:34:16;100962.41;;;15.09;70.99
30347;BME280;19047;44.782;20.468;2022-09-24T19:37:33;100962.50;;;15.06;71.06
30347;BME280;19047;44.782;20.468;2022-09-24T19:41:06;100958.56;;;15.03;71.08
30347;BME280;19047;44.782;20.468;2022-09-24T19:44:25;100961.00;;;15.01;71.22
30347;BME280;19047;44.782;20.468;2022-09-24T19:47:55;100957.03;;;14.98;71.24
30347;BME280;19047;44.782;20.468;2022-09-24T19:51:21;100953.06;;;14.96;71.24
30347;BME280;19047;44.782;20.468;2022-09-24T19:54:53;100965.19;;;14.93;71.40
30347;BME280;19047;44.782;20.468;2022-09-24T19:58:10;100958.88;;;14.89;71.50
30347;BME280;19047;44.782;20.468;2022-09-24T20:01:40;100954.88;;;14.86;71.56